CheckWX is a tool to help pilots better visualize weather data.  It is not intended as a substitute for an official pre-flight weather briefing.

18:34:23 UTC

KJXI METAR
Fox Stephens Field - Gilmer Municipal Airport
Gilmer, Texas, USA
Current

19 mins ago

KJXI 221815Z AUTO 00000KT 10SM OVC005 09/08 A3004 RMK AO2 LTG DSNT SW T00920083
Observed
Feb-22 @ 18:15 UTC
Visibility
10 SM
Flight Rules
IFR
Cloud Levels
  • Overcast at 500' AGL
Temperature
C / 48°F
Dewpoint
C / 46°F
Humidity
94%
Altimeter
30.04" Hg
Pressure
1017.32 hPa
Previous

39 mins ago

KJXI 221755Z AUTO 36003KT 10SM OVC005 09/08 A3004 RMK AO2 T00910081 10092 20066
Observed
Feb-22 @ 17:55 UTC
Wind
  • 360° at 3 KTS
Visibility
10 SM
Flight Rules
IFR
Cloud Levels
  • Overcast at 500' AGL
Temperature
C / 48°F
Dewpoint
C / 46°F
Humidity
94%
Altimeter
30.04" Hg
Pressure
1017.32 hPa
Previous

59 mins ago

KJXI 221735Z AUTO 07003KT 10SM OVC005 09/08 A3004 RMK AO2 T00900080
Observed
Feb-22 @ 17:35 UTC
Wind
  • 070° at 3 KTS
Visibility
10 SM
Flight Rules
IFR
Cloud Levels
  • Overcast at 500' AGL
Temperature
C / 48°F
Dewpoint
C / 46°F
Humidity
94%
Altimeter
30.04" Hg
Pressure
1017.32 hPa